Time;durP1;ratioP1;P1;durP2;ratioP2;P2;SDS_P1;SDS_P2;PMS_P1;PMS_P2;Temp;Humidity;BMP_temperature;BMP_pressure;BME280_temperature;BME280_humidity;BME280_pressure;Samples;Min_cycle;Max_cycle;Signal;HPM_P1;HPM_P2
2022/03/14 00:02:11;;;;;;;12.43;6.13;;;;;;;;;;5077212;28;20456;-81
2022/03/14 00:04:40;;;;;;;17.52;6.65;;;;;;;;;;5086320;28;20108;-81
2022/03/14 00:07:11;;;;;;;16.05;6.90;;;;;;;;;;5080558;28;20051;-81
2022/03/14 00:09:39;;;;;;;13.60;6.40;;;;;;;;;;5077684;28;20139;-81
2022/03/14 00:12:10;;;;;;;16.67;7.47;;;;;;;;;;5084674;28;20558;-81
2022/03/14 00:14:39;;;;;;;15.40;6.65;;;;;;;;;;5079491;28;20052;-81
2022/03/14 00:17:11;;;;;;;14.75;6.13;;;;;;;;;;5081492;28;20112;-81
2022/03/14 00:19:40;;;;;;;13.85;6.43;;;;;;;;;;5084995;28;20070;-81
2022/03/14 00:22:10;;;;;;;18.98;6.70;;;;;;;;;;5083111;28;20077;-82
2022/03/14 00:24:38;;;;;;;14.15;6.90;;;;;;;;;;5080831;28;20076;-82
2022/03/14 00:27:07;;;;;;;14.45;6.25;;;;;;;;;;5085745;28;20104;-81
2022/03/14 00:29:35;;;;;;;17.88;6.72;;;;;;;;;;5088542;28;20100;-81
2022/03/14 00:32:05;;;;;;;13.75;7.07;;;;;;;;;;5099440;28;20068;-81
2022/03/14 00:34:33;;;;;;;15.55;6.53;;;;;;;;;;5086440;28;20040;-82
2022/03/14 00:37:02;;;;;;;13.38;6.72;;;;;;;;;;5077803;28;20055;-80
2022/03/14 00:39:30;;;;;;;13.90;6.10;;;;;;;;;;5083864;28;20040;-81
2022/03/14 00:41:58;;;;;;;16.77;7.25;;;;;;;;;;5084097;28;20044;-81
2022/03/14 00:44:27;;;;;;;13.70;6.40;;;;;;;;;;5094556;28;20048;-81
2022/03/14 00:46:55;;;;;;;19.02;6.65;;;;;;;;;;5080849;28;20072;-81
2022/03/14 00:49:25;;;;;;;14.32;6.72;;;;;;;;;;5084070;28;20535;-81
2022/03/14 00:51:53;;;;;;;21.95;7.47;;;;;;;;;;5080353;28;20068;-80
2022/03/14 00:54:22;;;;;;;15.05;6.60;;;;;;;;;;5088575;28;20068;-81
2022/03/14 00:56:50;;;;;;;15.77;6.60;;;;;;;;;;5080464;28;20571;-82
2022/03/14 00:59:20;;;;;;;13.52;6.72;;;;;;;;;;5088393;28;20599;-81
2022/03/14 01:01:48;;;;;;;16.65;7.10;;;;;;;;;;5079514;28;20044;-80
2022/03/14 01:04:17;;;;;;;15.70;6.25;;;;;;;;;;5094978;28;20044;-81
2022/03/14 01:06:47;;;;;;;26.98;8.00;;;;;;;;;;5079506;28;20049;-82
2022/03/14 01:09:15;;;;;;;17.35;7.05;;;;;;;;;;5083104;28;20147;-81
2022/03/14 01:11:43;;;;;;;15.65;6.47;;;;;;;;;;5082554;28;20109;-81
2022/03/14 01:14:12;;;;;;;10.55;6.13;;;;;;;;;;5084808;28;20072;-82
2022/03/14 01:16:41;;;;;;;16.25;6.35;;;;;;;;;;5082031;28;20059;-81
2022/03/14 01:19:11;;;;;;;15.52;7.68;;;;;;;;;;5081657;28;20062;-83
2022/03/14 01:21:40;;;;;;;17.25;6.63;;;;;;;;;;5084999;28;20052;-81
2022/03/14 01:24:09;;;;;;;15.05;6.43;;;;;;;;;;5082899;28;20055;-82
2022/03/14 01:26:39;;;;;;;16.27;7.30;;;;;;;;;;5088685;28;20067;-81
2022/03/14 01:29:07;;;;;;;13.60;6.38;;;;;;;;;;5092978;28;20074;-81
2022/03/14 01:31:35;;;;;;;14.68;6.75;;;;;;;;;;5081335;28;20072;-82
2022/03/14 01:34:04;;;;;;;11.10;5.68;;;;;;;;;;5094896;28;20051;-82
2022/03/14 01:36:33;;;;;;;19.60;7.93;;;;;;;;;;5087515;28;20592;-81
2022/03/14 01:39:01;;;;;;;17.35;7.65;;;;;;;;;;5082078;28;20080;-81
2022/03/14 01:41:31;;;;;;;12.77;6.40;;;;;;;;;;5083444;28;20068;-81
2022/03/14 01:44:00;;;;;;;11.27;6.30;;;;;;;;;;5098427;28;20127;-82
2022/03/14 01:46:29;;;;;;;12.90;6.18;;;;;;;;;;5089229;28;20064;-81
2022/03/14 01:48:58;;;;;;;13.50;6.63;;;;;;;;;;5084129;28;20052;-81
2022/03/14 01:51:26;;;;;;;14.95;6.60;;;;;;;;;;5094006;28;20053;-82
2022/03/14 01:53:55;;;;;;;14.98;6.68;;;;;;;;;;5081814;28;20068;-81
2022/03/14 01:56:25;;;;;;;14.52;6.70;;;;;;;;;;5084531;28;20124;-81
2022/03/14 01:58:55;;;;;;;14.98;6.80;;;;;;;;;;5092139;28;20047;-81
2022/03/14 02:01:23;;;;;;;13.57;6.72;;;;;;;;;;5098997;28;20068;-80
2022/03/14 02:03:52;;;;;;;16.58;7.32;;;;;;;;;;5093803;28;20048;-80
2022/03/14 02:06:20;;;;;;;20.95;7.53;;;;;;;;;;5082645;28;20553;-81
2022/03/14 02:08:48;;;;;;;13.63;6.45;;;;;;;;;;5082872;28;20068;-81
2022/03/14 02:11:17;;;;;;;16.83;7.25;;;;;;;;;;5091763;28;20052;-80
2022/03/14 02:13:45;;;;;;;17.40;7.30;;;;;;;;;;5085546;28;20052;-81
2022/03/14 02:16:15;;;;;;;15.90;6.78;;;;;;;;;;5089083;28;20436;-80
2022/03/14 02:18:43;;;;;;;18.73;9.70;;;;;;;;;;5078862;28;20041;-80
2022/03/14 02:21:16;;;;;;;17.50;8.38;;;;;;;;;;5081503;28;20045;-80
2022/03/14 02:23:44;;;;;;;16.38;7.28;;;;;;;;;;5080211;28;20048;-80
2022/03/14 02:26:12;;;;;;;19.77;7.47;;;;;;;;;;5081859;28;20067;-81
2022/03/14 02:28:41;;;;;;;15.25;6.93;;;;;;;;;;5079954;28;20052;-83
2022/03/14 02:31:12;;;;;;;18.05;8.05;;;;;;;;;;5088445;28;20090;-81
2022/03/14 02:33:40;;;;;;;21.50;8.50;;;;;;;;;;5094253;28;20139;-81
2022/03/14 02:36:11;;;;;;;15.88;7.68;;;;;;;;;;5082794;28;20071;-80
2022/03/14 02:38:41;;;;;;;16.85;7.22;;;;;;;;;;5092473;28;20055;-81
2022/03/14 02:41:12;;;;;;;17.67;8.13;;;;;;;;;;5083675;28;20071;-81
2022/03/14 02:43:41;;;;;;;20.17;8.18;;;;;;;;;;5100049;28;20096;-81
2022/03/14 02:46:09;;;;;;;18.95;7.80;;;;;;;;;;5088262;28;20075;-81
2022/03/14 02:48:39;;;;;;;18.48;9.00;;;;;;;;;;5084109;28;20543;-81
2022/03/14 02:51:11;;;;;;;15.23;7.90;;;;;;;;;;5091519;28;20049;-80
2022/03/14 02:53:40;;;;;;;17.77;7.85;;;;;;;;;;5091900;28;20172;-80
2022/03/14 02:56:15;;;;;;;20.45;9.07;;;;;;;;;;5087635;28;20083;-81
2022/03/14 02:58:44;;;;;;;16.70;8.25;;;;;;;;;;5081828;28;20051;-81
2022/03/14 03:01:14;;;;;;;21.05;8.57;;;;;;;;;;5082852;28;20087;-81
2022/03/14 03:03:43;;;;;;;19.60;8.75;;;;;;;;;;5084033;28;20048;-81
2022/03/14 03:06:13;;;;;;;20.00;8.73;;;;;;;;;;5082748;28;20044;-80
2022/03/14 03:08:44;;;;;;;19.85;9.38;;;;;;;;;;5095960;28;20127;-79
2022/03/14 03:11:12;;;;;;;25.98;10.20;;;;;;;;;;5080156;28;20162;-80
2022/03/14 03:13:41;;;;;;;17.75;8.60;;;;;;;;;;5077966;28;20084;-80
2022/03/14 03:16:15;;;;;;;20.80;8.70;;;;;;;;;;5087532;28;20063;-80
2022/03/14 03:18:45;;;;;;;19.63;8.67;;;;;;;;;;5074517;28;20040;-79
2022/03/14 03:21:13;;;;;;;15.13;7.57;;;;;;;;;;5084757;28;20135;-79
2022/03/14 03:23:43;;;;;;;15.98;8.23;;;;;;;;;;5089089;28;20136;-79
2022/03/14 03:26:11;;;;;;;18.60;6.07;;;;;;;;;;5081877;28;20135;-79
2022/03/14 03:28:42;;;;;;;15.35;5.95;;;;;;;;;;5077118;28;20071;-80
2022/03/14 03:31:16;;;;;;;14.70;5.65;;;;;;;;;;5077511;28;20112;-79
2022/03/14 03:33:45;;;;;;;11.60;4.85;;;;;;;;;;5077456;28;20419;-79
2022/03/14 03:36:13;;;;;;;11.57;5.32;;;;;;;;;;5078356;28;20631;-79
2022/03/14 03:38:43;;;;;;;15.48;6.05;;;;;;;;;;5079553;28;20074;-79
2022/03/14 03:41:12;;;;;;;14.68;5.88;;;;;;;;;;5085761;28;20080;-79
2022/03/14 03:43:40;;;;;;;10.35;5.25;;;;;;;;;;5077815;28;20048;-80
2022/03/14 03:46:11;;;;;;;13.13;5.65;;;;;;;;;;5087634;28;20100;-80
2022/03/14 03:48:40;;;;;;;14.13;6.40;;;;;;;;;;5086824;28;20069;-80
2022/03/14 03:51:14;;;;;;;14.82;6.40;;;;;;;;;;5088094;28;20131;-80
2022/03/14 03:53:43;;;;;;;13.00;6.03;;;;;;;;;;5083459;28;20100;-80
2022/03/14 03:56:13;;;;;;;13.05;5.72;;;;;;;;;;5096743;28;20071;-80
2022/03/14 03:58:41;;;;;;;11.98;5.75;;;;;;;;;;5081497;28;20088;-81
2022/03/14 04:01:10;;;;;;;15.70;6.25;;;;;;;;;;5080680;28;20079;-81
2022/03/14 04:03:38;;;;;;;18.00;6.47;;;;;;;;;;5082305;28;20499;-82
2022/03/14 04:06:18;;;;;;;14.18;6.50;;;;;;;;;;5084796;28;20052;-82
2022/03/14 04:08:48;;;;;;;17.88;8.02;;;;;;;;;;5095973;28;20047;-81
2022/03/14 04:11:16;;;;;;;18.98;6.95;;;;;;;;;;5090384;28;20048;-83
2022/03/14 04:13:45;;;;;;;16.25;7.07;;;;;;;;;;5081941;28;20083;-81
2022/03/14 04:16:18;;;;;;;22.17;7.72;;;;;;;;;;5084812;28;20044;-81
2022/03/14 04:18:46;;;;;;;21.75;8.25;;;;;;;;;;5086586;28;20045;-81
2022/03/14 04:21:15;;;;;;;23.08;8.02;;;;;;;;;;5085502;28;20071;-81
2022/03/14 04:23:44;;;;;;;22.70;8.98;;;;;;;;;;5082532;28;20051;-81
2022/03/14 04:26:14;;;;;;;23.42;8.75;;;;;;;;;;5089407;28;20047;-81
2022/03/14 04:28:42;;;;;;;16.27;8.18;;;;;;;;;;5081195;28;20052;-81
2022/03/14 04:31:11;;;;;;;23.85;9.50;;;;;;;;;;5082605;28;20499;-81
2022/03/14 04:33:42;;;;;;;24.88;9.95;;;;;;;;;;5087354;28;20078;-80
2022/03/14 04:36:13;;;;;;;20.52;9.93;;;;;;;;;;5081341;28;20132;-81
2022/03/14 04:38:42;;;;;;;21.15;8.65;;;;;;;;;;5079636;28;20048;-81
2022/03/14 04:41:15;;;;;;;23.63;9.50;;;;;;;;;;5081711;28;20048;-81
2022/03/14 04:43:43;;;;;;;22.80;9.40;;;;;;;;;;5087428;28;20450;-81
2022/03/14 04:46:12;;;;;;;23.45;8.95;;;;;;;;;;5088118;28;20076;-81
2022/03/14 04:48:40;;;;;;;28.20;11.38;;;;;;;;;;5094645;28;20071;-81
2022/03/14 04:51:13;;;;;;;23.33;10.13;;;;;;;;;;5095155;28;20103;-81
2022/03/14 04:53:41;;;;;;;22.13;9.10;;;;;;;;;;5085979;28;20044;-81
2022/03/14 04:56:12;;;;;;;22.80;10.15;;;;;;;;;;5086442;28;20543;-81
2022/03/14 04:58:42;;;;;;;19.38;9.05;;;;;;;;;;5083528;28;20040;-81
2022/03/14 05:01:23;;;;;;;25.25;9.75;;;;;;;;;;5085635;28;20045;-81
2022/03/14 05:03:52;;;;;;;21.60;9.95;;;;;;;;;;5089216;28;20162;-81
2022/03/14 05:06:23;;;;;;;22.48;8.75;;;;;;;;;;5099069;28;20041;-81
2022/03/14 05:08:52;;;;;;;22.20;9.32;;;;;;;;;;5108074;28;20056;-82
2022/03/14 05:11:20;;;;;;;24.33;9.32;;;;;;;;;;5096234;28;20049;-81
2022/03/14 05:13:50;;;;;;;25.02;9.35;;;;;;;;;;5099124;28;20048;-81
2022/03/14 05:16:19;;;;;;;24.73;9.70;;;;;;;;;;5095964;28;20044;-81
2022/03/14 05:18:47;;;;;;;21.30;9.05;;;;;;;;;;5094967;28;20103;-81
2022/03/14 05:21:16;;;;;;;23.83;10.30;;;;;;;;;;5085048;28;20064;-81
2022/03/14 05:23:44;;;;;;;24.85;9.77;;;;;;;;;;5078630;28;20471;-82
2022/03/14 05:26:25;;;;;;;21.52;9.48;;;;;;;;;;5082570;28;20068;-81
2022/03/14 05:28:54;;;;;;;27.98;10.02;;;;;;;;;;5076959;28;20071;-81
2022/03/14 05:31:23;;;;;;;21.67;9.43;;;;;;;;;;5077536;28;20098;-81
2022/03/14 05:33:51;;;;;;;21.30;9.75;;;;;;;;;;5086387;28;20044;-81
2022/03/14 05:36:22;;;;;;;20.05;8.70;;;;;;;;;;5088552;28;20538;-81
2022/03/14 05:38:50;;;;;;;18.33;8.15;;;;;;;;;;5078546;28;20124;-81
2022/03/14 05:41:22;;;;;;;21.63;9.70;;;;;;;;;;5081013;28;20183;-81
2022/03/14 05:43:50;;;;;;;24.33;9.18;;;;;;;;;;5078657;28;20098;-81
2022/03/14 05:46:26;;;;;;;18.98;8.13;;;;;;;;;;5081771;28;20044;-81
2022/03/14 05:48:54;;;;;;;17.08;7.82;;;;;;;;;;5085032;28;20084;-81
2022/03/14 05:51:28;;;;;;;21.45;7.43;;;;;;;;;;5080393;28;20076;-82
2022/03/14 05:53:56;;;;;;;18.63;6.60;;;;;;;;;;5079204;28;20052;-79
2022/03/14 05:56:25;;;;;;;13.98;6.38;;;;;;;;;;5095703;28;20048;-81
2022/03/14 05:58:54;;;;;;;17.60;6.75;;;;;;;;;;5085091;28;24107;-80
2022/03/14 06:01:29;;;;;;;22.90;6.70;;;;;;;;;;5086934;28;20112;-80
2022/03/14 06:03:57;;;;;;;11.68;5.25;;;;;;;;;;5094525;28;20076;-80
2022/03/14 06:06:29;;;;;;;9.02;4.82;;;;;;;;;;5085946;28;20087;-81
2022/03/14 06:08:57;;;;;;;9.27;5.18;;;;;;;;;;5080627;28;20115;-81
2022/03/14 06:11:27;;;;;;;12.77;5.07;;;;;;;;;;5077192;28;20100;-82
2022/03/14 06:13:56;;;;;;;9.65;4.30;;;;;;;;;;5083687;28;20076;-81
2022/03/14 06:16:29;;;;;;;10.80;5.30;;;;;;;;;;5075918;28;20166;-82
2022/03/14 06:18:57;;;;;;;8.95;4.53;;;;;;;;;;5057807;28;20041;-81
2022/03/14 06:21:26;;;;;;;11.38;5.22;;;;;;;;;;5073727;28;20075;-82
2022/03/14 06:23:54;;;;;;;14.15;4.85;;;;;;;;;;5092080;28;20287;-81
2022/03/14 06:26:22;;;;;;;10.57;4.95;;;;;;;;;;5077837;28;20420;-82
2022/03/14 06:28:51;;;;;;;10.38;4.45;;;;;;;;;;5084744;28;20040;-81
2022/03/14 06:31:19;;;;;;;11.52;4.40;;;;;;;;;;5077929;28;20048;-82
2022/03/14 06:33:50;;;;;;;10.73;3.80;;;;;;;;;;5083305;28;20104;-82
2022/03/14 06:36:22;;;;;;;9.18;4.38;;;;;;;;;;5075637;28;20060;-82
2022/03/14 06:38:50;;;;;;;8.18;3.53;;;;;;;;;;5083317;28;20053;-81
2022/03/14 06:41:38;;;;;;;8.82;3.78;;;;;;;;;;5083655;28;20048;-82
2022/03/14 06:44:08;;;;;;;6.78;3.60;;;;;;;;;;5089626;28;20080;-82
2022/03/14 06:46:36;;;;;;;8.13;3.58;;;;;;;;;;5080343;28;20127;-82
2022/03/14 06:49:06;;;;;;;9.13;4.32;;;;;;;;;;5074641;28;20040;-82
2022/03/14 06:51:37;;;;;;;7.40;3.38;;;;;;;;;;5074983;28;20045;-82
2022/03/14 06:54:05;;;;;;;6.10;3.17;;;;;;;;;;5072946;28;20275;-82
2022/03/14 06:56:34;;;;;;;8.65;3.15;;;;;;;;;;5076164;28;20047;-82
2022/03/14 06:59:02;;;;;;;5.75;3.22;;;;;;;;;;5081292;28;20109;-82
2022/03/14 07:01:31;;;;;;;6.95;3.38;;;;;;;;;;5081254;28;20055;-82
2022/03/14 07:04:01;;;;;;;6.78;2.80;;;;;;;;;;5074446;28;20487;-82
2022/03/14 07:06:31;;;;;;;7.05;2.88;;;;;;;;;;5077245;28;20182;-82
2022/03/14 07:08:59;;;;;;;7.20;2.70;;;;;;;;;;5072475;28;20449;-82
2022/03/14 07:11:28;;;;;;;4.97;2.55;;;;;;;;;;5074350;28;20096;-83
2022/03/14 07:13:56;;;;;;;6.13;2.60;;;;;;;;;;5079810;28;20056;-82
2022/03/14 07:16:30;;;;;;;4.93;2.15;;;;;;;;;;5077432;28;20630;-82
2022/03/14 07:19:01;;;;;;;6.22;2.63;;;;;;;;;;5080995;28;20545;-83
2022/03/14 07:21:34;;;;;;;6.88;2.20;;;;;;;;;;5070705;28;20048;-83
2022/03/14 07:24:02;;;;;;;4.57;2.13;;;;;;;;;;5075383;28;20718;-83
2022/03/14 07:26:30;;;;;;;7.53;2.72;;;;;;;;;;5083969;28;20055;-83
2022/03/14 07:28:59;;;;;;;4.70;2.10;;;;;;;;;;5082553;28;20063;-83
2022/03/14 07:31:30;;;;;;;4.15;1.75;;;;;;;;;;5078067;28;20491;-82
2022/03/14 07:33:58;;;;;;;4.13;2.03;;;;;;;;;;5075603;28;20044;-83
2022/03/14 07:36:27;;;;;;;3.95;1.60;;;;;;;;;;5074716;28;20053;-83
2022/03/14 07:38:58;;;;;;;4.82;1.65;;;;;;;;;;5077651;28;20056;-83
2022/03/14 07:41:26;;;;;;;4.82;1.80;;;;;;;;;;5077035;28;20103;-83
2022/03/14 07:43:54;;;;;;;4.70;1.92;;;;;;;;;;5083129;28;20079;-83
2022/03/14 07:46:29;;;;;;;2.92;1.77;;;;;;;;;;5091789;28;20479;-86
2022/03/14 07:48:57;;;;;;;2.00;1.63;;;;;;;;;;5081452;28;20039;-82
2022/03/14 07:51:28;;;;;;;3.95;1.85;;;;;;;;;;5076578;28;20084;-82
2022/03/14 07:53:58;;;;;;;4.43;1.80;;;;;;;;;;5084333;28;20136;-83
2022/03/14 07:56:29;;;;;;;4.15;1.55;;;;;;;;;;5087913;28;20598;-84
2022/03/14 07:58:58;;;;;;;5.07;1.48;;;;;;;;;;5070466;28;20103;-82
2022/03/14 08:01:26;;;;;;;3.70;1.52;;;;;;;;;;5082504;28;20087;-83
2022/03/14 08:03:55;;;;;;;3.58;1.70;;;;;;;;;;5076372;28;20284;-83
2022/03/14 08:06:26;;;;;;;6.43;1.92;;;;;;;;;;5081223;28;20447;-84
2022/03/14 08:08:55;;;;;;;3.55;2.20;;;;;;;;;;5072317;28;20045;-83
2022/03/14 08:11:32;;;;;;;2.78;1.85;;;;;;;;;;5073902;28;20637;-84
2022/03/14 08:14:01;;;;;;;5.72;1.80;;;;;;;;;;5077166;28;20044;-83
2022/03/14 08:16:29;;;;;;;3.50;1.80;;;;;;;;;;5075965;28;20044;-84
2022/03/14 08:18:58;;;;;;;6.82;1.60;;;;;;;;;;5089001;28;20039;-83
2022/03/14 08:21:36;;;;;;;4.63;2.17;;;;;;;;;;5078010;28;20048;-84
2022/03/14 08:24:04;;;;;;;4.45;1.63;;;;;;;;;;5093457;28;20055;-82
2022/03/14 08:26:34;;;;;;;2.45;1.55;;;;;;;;;;5091923;28;20036;-82
2022/03/14 08:29:03;;;;;;;2.25;1.50;;;;;;;;;;5073560;28;20393;-84
2022/03/14 08:31:33;;;;;;;2.08;1.23;;;;;;;;;;5081941;28;20042;-82
2022/03/14 08:34:02;;;;;;;3.22;1.02;;;;;;;;;;5079528;28;20066;-83
2022/03/14 08:36:32;;;;;;;2.25;0.82;;;;;;;;;;5084719;28;20044;-82
2022/03/14 08:39:01;;;;;;;3.15;0.80;;;;;;;;;;5078420;28;20089;-84
2022/03/14 08:41:46;;;;;;;2.22;0.90;;;;;;;;;;5077624;28;20051;-83
2022/03/14 08:44:15;;;;;;;1.27;0.70;;;;;;;;;;5076091;28;20113;-83
2022/03/14 08:46:45;;;;;;;2.35;1.10;;;;;;;;;;5085826;28;20051;-83
2022/03/14 08:49:14;;;;;;;2.20;0.77;;;;;;;;;;5080518;28;20075;-83
2022/03/14 08:51:42;;;;;;;1.17;0.68;;;;;;;;;;5089826;28;20075;-83
2022/03/14 08:54:11;;;;;;;3.25;1.08;;;;;;;;;;5092540;28;20040;-83
2022/03/14 08:56:40;;;;;;;2.15;1.00;;;;;;;;;;5084826;28;20056;-83
2022/03/14 08:59:12;;;;;;;1.92;0.90;;;;;;;;;;5091367;28;20080;-82
2022/03/14 09:01:41;;;;;;;1.27;0.88;;;;;;;;;;5074492;28;20098;-83
2022/03/14 09:04:10;;;;;;;1.88;0.80;;;;;;;;;;5074701;28;20048;-83
2022/03/14 09:06:42;;;;;;;1.90;1.00;;;;;;;;;;5073961;28;20049;-83
2022/03/14 09:09:10;;;;;;;1.77;0.90;;;;;;;;;;5083666;28;20040;-82
2022/03/14 09:11:39;;;;;;;1.35;0.82;;;;;;;;;;5088373;28;20475;-83
2022/03/14 09:14:09;;;;;;;2.03;1.02;;;;;;;;;;5093988;28;20097;-83
2022/03/14 09:16:39;;;;;;;0.93;0.80;;;;;;;;;;5082405;28;20075;-83
2022/03/14 09:19:12;;;;;;;1.33;1.00;;;;;;;;;;5075543;28;20044;-83
2022/03/14 09:21:41;;;;;;;2.92;0.68;;;;;;;;;;5086203;28;20045;-83
2022/03/14 09:24:11;;;;;;;3.70;0.80;;;;;;;;;;5086973;28;20051;-82
2022/03/14 09:26:42;;;;;;;2.45;0.90;;;;;;;;;;5077051;28;20044;-83
2022/03/14 09:29:13;;;;;;;3.10;1.00;;;;;;;;;;5076160;28;20521;-83
2022/03/14 09:31:42;;;;;;;1.80;0.77;;;;;;;;;;5087344;28;20060;-82
2022/03/14 09:34:11;;;;;;;1.20;0.80;;;;;;;;;;5089022;28;20180;-83
2022/03/14 09:36:39;;;;;;;4.47;0.80;;;;;;;;;;5084038;28;20054;-83
2022/03/14 09:39:13;;;;;;;2.97;1.40;;;;;;;;;;5078049;28;20049;-83
2022/03/14 09:41:43;;;;;;;1.03;0.60;;;;;;;;;;5094255;28;20582;-83
2022/03/14 09:44:16;;;;;;;1.77;0.80;;;;;;;;;;5080847;28;20062;-83
2022/03/14 09:46:47;;;;;;;1.10;0.63;;;;;;;;;;5086767;28;20043;-83
2022/03/14 09:49:17;;;;;;;1.40;0.82;;;;;;;;;;5084801;28;20062;-83
2022/03/14 09:51:46;;;;;;;1.10;0.63;;;;;;;;;;5080655;28;20054;-83
2022/03/14 09:54:14;;;;;;;1.00;0.70;;;;;;;;;;5097297;28;20048;-83
2022/03/14 09:56:43;;;;;;;1.77;1.00;;;;;;;;;;5092501;28;20036;-83
2022/03/14 09:59:16;;;;;;;1.10;0.68;;;;;;;;;;5084686;28;20044;-83
2022/03/14 10:01:45;;;;;;;1.40;0.50;;;;;;;;;;5092058;28;20067;-83
2022/03/14 10:04:14;;;;;;;1.42;0.70;;;;;;;;;;5095565;28;20442;-83
2022/03/14 10:06:44;;;;;;;0.90;0.55;;;;;;;;;;5079207;28;20049;-83
2022/03/14 10:09:13;;;;;;;1.88;0.63;;;;;;;;;;5084916;28;20045;-87
2022/03/14 10:11:42;;;;;;;0.55;0.50;;;;;;;;;;5089792;28;20056;-83
2022/03/14 10:14:16;;;;;;;1.73;0.73;;;;;;;;;;5085324;28;20043;-84
2022/03/14 10:16:47;;;;;;;1.48;0.75;;;;;;;;;;5084396;28;20484;-83
2022/03/14 10:19:20;;;;;;;2.42;0.80;;;;;;;;;;5088145;28;20044;-84
2022/03/14 10:21:52;;;;;;;1.30;0.73;;;;;;;;;;5089200;28;20052;-83
2022/03/14 10:24:22;;;;;;;1.20;0.70;;;;;;;;;;5074801;28;20047;-83
2022/03/14 10:26:51;;;;;;;1.23;0.77;;;;;;;;;;5062385;28;20056;-83
2022/03/14 10:29:25;;;;;;;0.95;0.50;;;;;;;;;;5074722;28;20076;-83
2022/03/14 10:31:56;;;;;;;0.67;0.53;;;;;;;;;;5077747;28;20059;-82
2022/03/14 10:34:24;;;;;;;2.22;0.68;;;;;;;;;;5083058;28;20048;-83
2022/03/14 10:36:54;;;;;;;3.08;0.80;;;;;;;;;;5081091;28;20340;-83
2022/03/14 10:39:27;;;;;;;0.50;0.47;;;;;;;;;;5074773;28;20069;-83
2022/03/14 10:42:07;;;;;;;1.98;0.50;;;;;;;;;;5071519;28;20105;-83
2022/03/14 10:44:51;;;;;;;1.83;0.52;;;;;;;;;;5080876;28;20044;-83
2022/03/14 10:47:25;;;;;;;2.13;0.60;;;;;;;;;;5081907;28;20495;-83
2022/03/14 10:49:54;;;;;;;1.15;0.73;;;;;;;;;;5089322;28;20052;-83
2022/03/14 10:52:23;;;;;;;2.40;0.73;;;;;;;;;;5086486;28;20478;-83
2022/03/14 10:54:52;;;;;;;0.90;0.50;;;;;;;;;;5092904;28;20044;-83
2022/03/14 10:57:23;;;;;;;1.05;0.65;;;;;;;;;;5075529;28;20119;-83
2022/03/14 10:59:53;;;;;;;0.57;0.57;;;;;;;;;;5080178;28;20131;-83
2022/03/14 11:02:23;;;;;;;2.35;0.90;;;;;;;;;;5057550;28;20063;-83
2022/03/14 11:04:53;;;;;;;1.35;0.80;;;;;;;;;;5074788;28;20079;-82
2022/03/14 11:07:22;;;;;;;1.13;0.85;;;;;;;;;;5089989;28;20113;-83
2022/03/14 11:09:51;;;;;;;1.50;1.02;;;;;;;;;;5082182;28;20056;-83
2022/03/14 11:12:21;;;;;;;2.35;1.00;;;;;;;;;;5083147;28;20713;-83
2022/03/14 11:14:53;;;;;;;1.77;1.10;;;;;;;;;;5080886;28;20048;-82
2022/03/14 11:17:24;;;;;;;1.67;0.88;;;;;;;;;;5057841;28;20115;-83
2022/03/14 11:19:52;;;;;;;1.30;0.82;;;;;;;;;;5074457;28;20049;-83
2022/03/14 11:22:22;;;;;;;2.00;0.80;;;;;;;;;;5087210;28;20045;-82
2022/03/14 11:24:51;;;;;;;2.53;1.58;;;;;;;;;;5076993;28;20056;-83
2022/03/14 11:27:21;;;;;;;1.55;0.80;;;;;;;;;;5088393;28;20075;-83
2022/03/14 11:29:50;;;;;;;1.42;0.90;;;;;;;;;;5079680;28;20084;-83
2022/03/14 11:32:20;;;;;;;1.00;0.90;;;;;;;;;;5072511;28;20492;-87
2022/03/14 11:35:04;;;;;;;1.00;0.73;;;;;;;;;;5079788;28;20043;-85
2022/03/14 11:37:33;;;;;;;1.00;0.90;;;;;;;;;;5077151;28;20040;-84
2022/03/14 11:40:02;;;;;;;1.50;1.05;;;;;;;;;;5075100;28;20052;-84
2022/03/14 11:42:30;;;;;;;7.80;2.22;;;;;;;;;;5078090;28;20491;-84
2022/03/14 11:45:06;;;;;;;1.75;1.08;;;;;;;;;;5074665;28;20479;-84
2022/03/14 11:47:34;;;;;;;2.40;0.80;;;;;;;;;;5080855;28;20040;-85
2022/03/14 11:50:05;;;;;;;2.47;1.23;;;;;;;;;;5077194;28;20052;-84
2022/03/14 11:52:37;;;;;;;2.33;0.90;;;;;;;;;;5090486;28;20075;-84
2022/03/14 11:55:16;;;;;;;0.88;0.75;;;;;;;;;;5081808;28;20098;-85
2022/03/14 11:57:45;;;;;;;2.05;0.70;;;;;;;;;;5089970;28;20274;-84
2022/03/14 12:00:33;;;;;;;2.50;1.08;;;;;;;;;;5077824;28;20118;-84
2022/03/14 12:03:03;;;;;;;1.20;0.77;;;;;;;;;;5084637;28;20104;-83
2022/03/14 12:05:52;;;;;;;1.40;0.90;;;;;;;;;;5089229;28;20063;-83
2022/03/14 12:08:35;;;;;;;1.15;0.80;;;;;;;;;;5077177;28;20044;-83
2022/03/14 12:11:25;;;;;;;1.33;0.75;;;;;;;;;;5070103;28;20514;-83
2022/03/14 12:13:53;;;;;;;3.25;1.00;;;;;;;;;;5072534;28;20052;-84
2022/03/14 12:16:38;;;;;;;1.30;0.60;;;;;;;;;;5072621;28;20048;-83
2022/03/14 12:19:24;;;;;;;1.42;0.90;;;;;;;;;;5055490;28;20072;-85
2022/03/14 12:21:55;;;;;;;1.50;0.73;;;;;;;;;;5066357;28;20058;-84
2022/03/14 12:24:44;;;;;;;2.72;0.80;;;;;;;;;;5080457;28;20553;-84
2022/03/14 12:27:16;;;;;;;0.88;0.57;;;;;;;;;;5076665;28;20048;-84
2022/03/14 12:29:46;;;;;;;1.45;0.80;;;;;;;;;;5077600;28;20055;-84
2022/03/14 12:32:26;;;;;;;1.10;0.82;;;;;;;;;;5074563;28;20045;-85
2022/03/14 12:34:58;;;;;;;2.90;0.75;;;;;;;;;;5086559;28;20048;-84
2022/03/14 12:37:34;;;;;;;1.98;0.95;;;;;;;;;;5076326;28;20079;-87
2022/03/14 12:40:04;;;;;;;1.05;0.70;;;;;;;;;;5086652;28;20075;-84
2022/03/14 12:42:39;;;;;;;3.00;0.75;;;;;;;;;;5090251;28;20048;-85
2022/03/14 12:45:22;;;;;;;0.93;0.73;;;;;;;;;;5080154;28;20044;-86
2022/03/14 12:47:51;;;;;;;0.75;0.60;;;;;;;;;;5091295;28;20052;-84
2022/03/14 12:50:46;;;;;;;1.50;0.93;;;;;;;;;;5051171;28;20072;-85
2022/03/14 12:53:17;;;;;;;1.73;0.80;;;;;;;;;;5051529;28;20044;-84
2022/03/14 12:55:47;;;;;;;1.25;0.90;;;;;;;;;;5086466;28;20052;-85
2022/03/14 12:58:19;;;;;;;1.95;1.05;;;;;;;;;;5074398;28;20079;-82
2022/03/14 13:00:47;;;;;;;0.88;0.70;;;;;;;;;;5079558;28;20045;-84
2022/03/14 13:03:25;;;;;;;1.25;0.63;;;;;;;;;;5078987;28;20051;-83
2022/03/14 13:05:54;;;;;;;1.77;0.85;;;;;;;;;;5084233;28;20109;-84
2022/03/14 13:08:25;;;;;;;5.78;1.00;;;;;;;;;;5079276;28;20059;-85
2022/03/14 13:10:56;;;;;;;1.95;0.90;;;;;;;;;;5079351;28;20054;-84
2022/03/14 13:13:26;;;;;;;1.23;0.85;;;;;;;;;;5081368;28;20037;-83
2022/03/14 13:16:03;;;;;;;1.67;1.10;;;;;;;;;;5080539;28;20480;-83
2022/03/14 13:18:34;;;;;;;1.40;0.90;;;;;;;;;;5088566;28;20101;-82
2022/03/14 13:21:32;;;;;;;0.63;0.60;;;;;;;;;;5080767;28;20052;-82
2022/03/14 13:24:03;;;;;;;0.95;0.75;;;;;;;;;;5071674;28;20055;-82
2022/03/14 13:26:36;;;;;;;1.55;0.90;;;;;;;;;;5099304;28;20040;-82
2022/03/14 13:29:05;;;;;;;1.42;1.00;;;;;;;;;;5090478;28;20096;-83
2022/03/14 13:31:35;;;;;;;2.03;1.27;;;;;;;;;;5094270;28;20151;-83
2022/03/14 13:34:05;;;;;;;4.28;0.82;;;;;;;;;;5084390;28;20522;-82
2022/03/14 13:36:38;;;;;;;1.70;1.00;;;;;;;;;;5090937;28;20070;-82
2022/03/14 13:39:11;;;;;;;1.48;0.80;;;;;;;;;;5086185;28;20059;-85
2022/03/14 13:41:40;;;;;;;1.60;0.85;;;;;;;;;;5077905;28;20048;-82
2022/03/14 13:44:15;;;;;;;2.10;0.70;;;;;;;;;;5087115;28;20044;-83
2022/03/14 13:46:49;;;;;;;2.75;1.08;;;;;;;;;;5086650;28;20044;-82
2022/03/14 13:49:21;;;;;;;1.13;0.90;;;;;;;;;;5089008;28;20056;-82
2022/03/14 13:51:51;;;;;;;3.38;1.20;;;;;;;;;;5084107;28;20052;-82
2022/03/14 13:57:35;;;;;;;1.58;0.95;;;;;;;;;;5091155;28;20056;-85
2022/03/14 14:00:13;;;;;;;1.45;0.98;;;;;;;;;;5064537;28;20048;-84
2022/03/14 14:02:41;;;;;;;1.83;0.95;;;;;;;;;;5077445;28;20044;-83
2022/03/14 14:05:14;;;;;;;1.90;0.90;;;;;;;;;;5075038;28;20044;-83
2022/03/14 14:07:51;;;;;;;2.78;1.00;;;;;;;;;;5083502;28;20048;-83
2022/03/14 14:10:21;;;;;;;1.75;1.00;;;;;;;;;;5085989;28;20412;-84
2022/03/14 14:13:00;;;;;;;2.25;1.15;;;;;;;;;;5092750;28;20055;-85
2022/03/14 14:15:44;;;;;;;1.52;1.00;;;;;;;;;;5104109;28;20048;-83
2022/03/14 14:18:17;;;;;;;1.70;1.05;;;;;;;;;;5097857;28;20052;-83
2022/03/14 14:20:46;;;;;;;1.77;1.08;;;;;;;;;;5099544;28;20105;-83
2022/03/14 14:23:16;;;;;;;1.23;0.90;;;;;;;;;;5096540;28;20086;-83
2022/03/14 14:26:04;;;;;;;3.85;1.17;;;;;;;;;;5103320;28;20040;-83
2022/03/14 14:28:36;;;;;;;2.28;1.00;;;;;;;;;;5113284;27;20040;-84
2022/03/14 14:31:28;;;;;;;2.10;1.00;;;;;;;;;;5117433;27;20491;-83
2022/03/14 14:33:57;;;;;;;3.22;1.23;;;;;;;;;;5108819;27;20047;-83
2022/03/14 14:36:34;;;;;;;1.77;1.13;;;;;;;;;;5076186;28;20093;-85
2022/03/14 14:39:03;;;;;;;2.65;1.10;;;;;;;;;;5101251;28;20047;-83
2022/03/14 14:41:33;;;;;;;0.73;0.70;;;;;;;;;;5104482;28;20042;-84
2022/03/14 14:44:04;;;;;;;2.13;1.30;;;;;;;;;;5111101;28;20055;-83
2022/03/14 14:46:33;;;;;;;1.30;1.10;;;;;;;;;;5108537;27;20065;-83
2022/03/14 14:49:01;;;;;;;1.92;1.20;;;;;;;;;;5110080;28;20052;-84
2022/03/14 14:51:30;;;;;;;2.03;1.20;;;;;;;;;;5099035;28;20052;-83
2022/03/14 14:54:00;;;;;;;2.20;1.02;;;;;;;;;;5101858;28;20394;-83
2022/03/14 14:56:28;;;;;;;0.90;0.80;;;;;;;;;;5105842;28;20084;-83
2022/03/14 14:58:58;;;;;;;2.03;1.20;;;;;;;;;;5101465;28;20052;-83
2022/03/14 15:01:43;;;;;;;1.73;1.20;;;;;;;;;;5108414;28;20047;-83
2022/03/14 15:04:12;;;;;;;;;;;;;;;;;;5109422;28;20040;-83